createdAt,value
2023-09-24T00:02:38.304Z,9.2
2023-09-24T00:18:12.840Z,9.2
2023-09-24T00:33:48.052Z,9.2
2023-09-24T00:49:22.246Z,9.2
2023-09-24T01:04:56.394Z,9
2023-09-24T01:20:31.061Z,8.8
2023-09-24T01:36:05.146Z,8.7
2023-09-24T01:51:39.252Z,8.6
2023-09-24T02:07:13.292Z,8.6
2023-09-24T02:22:47.275Z,8.6
2023-09-24T02:38:21.364Z,8.5
2023-09-24T02:53:55.642Z,8.5
2023-09-24T03:09:29.906Z,8.3
2023-09-24T03:25:04.081Z,8.3
2023-09-24T03:40:38.315Z,8.3
2023-09-24T03:56:12.416Z,8.3
2023-09-24T04:11:46.530Z,8.6
2023-09-24T04:27:20.578Z,8.9
2023-09-24T04:42:54.503Z,9
2023-09-24T04:58:28.666Z,9.2
2023-09-24T05:14:02.734Z,9.1
2023-09-24T05:29:36.930Z,9
2023-09-24T05:45:11.383Z,9
2023-09-24T06:00:45.594Z,9
2023-09-24T06:16:19.947Z,9.4
2023-09-24T06:31:54.327Z,9.6
2023-09-24T06:47:28.592Z,10.1
2023-09-24T07:03:03.419Z,10.9
2023-09-24T07:18:38.421Z,12.1
2023-09-24T07:34:12.885Z,12.5
2023-09-24T07:49:46.936Z,12.5
2023-09-24T08:05:21.165Z,12.9
2023-09-24T08:20:55.446Z,13.5
2023-09-24T08:36:29.658Z,14.3
2023-09-24T08:52:03.891Z,15
2023-09-24T09:07:38.094Z,15.9
2023-09-24T09:23:12.339Z,16.6
2023-09-24T09:38:47.030Z,17
2023-09-24T09:54:21.803Z,17.7
2023-09-24T10:09:56.161Z,18.7
2023-09-24T10:25:30.332Z,19.1
2023-09-24T10:41:04.486Z,19.5
2023-09-24T10:56:39.639Z,19.7
2023-09-24T11:12:17.491Z,20.2
2023-09-24T11:27:51.759Z,20.3
2023-09-24T11:43:26.042Z,20
2023-09-24T11:59:00.252Z,19.9
2023-09-24T12:14:34.434Z,20.1
2023-09-24T12:30:09.121Z,20.8
2023-09-24T12:45:43.993Z,21.5
2023-09-24T13:01:18.193Z,21.3
2023-09-24T13:16:52.518Z,20.5
2023-09-24T13:32:28.992Z,20.4
2023-09-24T13:48:03.619Z,19.7
2023-09-24T14:03:38.769Z,20.1
2023-09-24T14:19:14.238Z,20.5
2023-09-24T14:34:52.364Z,20.1
2023-09-24T14:50:26.563Z,20
2023-09-24T15:06:00.935Z,19.7
2023-09-24T15:21:35.130Z,19.6
2023-09-24T15:37:09.400Z,19.3
2023-09-24T15:52:43.675Z,19
2023-09-24T16:08:17.848Z,18.7
2023-09-24T16:23:52.794Z,18.3
2023-09-24T16:39:27.128Z,17.9
2023-09-24T16:55:01.532Z,17.2
2023-09-24T17:10:35.749Z,16.4
2023-09-24T17:26:09.927Z,15.8
2023-09-24T17:41:44.136Z,15.2
2023-09-24T17:57:18.745Z,14.6
2023-09-24T18:12:53.706Z,14.3
2023-09-24T18:28:27.894Z,13.9
2023-09-24T18:44:02.018Z,13.6
2023-09-24T18:59:36.141Z,13.4
2023-09-24T19:15:10.631Z,13.2
2023-09-24T19:30:44.774Z,13
2023-09-24T19:46:20.105Z,12.7
2023-09-24T20:01:54.320Z,12.6
2023-09-24T20:17:28.676Z,12.4
2023-09-24T20:33:49.828Z,11.9
2023-09-24T20:49:32.128Z,11.9
2023-09-24T21:05:06.404Z,11.7
2023-09-24T21:20:41.634Z,11.7
2023-09-24T21:36:15.858Z,11.5
2023-09-24T21:51:50.086Z,11.3
2023-09-24T22:07:24.477Z,11.1
2023-09-24T22:22:58.542Z,11
2023-09-24T22:38:32.616Z,10.8
2023-09-24T22:54:06.959Z,10.6
2023-09-24T23:09:41.410Z,10.4
2023-09-24T23:25:15.640Z,10.3
2023-09-24T23:40:49.693Z,10.3
2023-09-24T23:56:23.778Z,10
